Lusigny sur Ouche (21) - D40C,70+

Date : 27/05/2017

Place Nom Licence Catégorie Club Temps CN à J-60 Points Différence Nouveau CN
1 VAYSSE Isabelle 16455 D45 7305AR 0:29:15 3630 3812 +182 3880
2 LEROY Céline 29866 D35 2605AR 0:30:14 3671 3688 +17 3715
3 SCHOULLER Coralie 13242 D40 5703GE 0:30:59 4064 3599 -465 4064
4 THIEBAULT Monique 5033 D70 3318NA 0:31:58 3559 3488 -71 3531
5 PERDRIZET Anne 2661 D45 2101BF 0:33:11 3515 3360 -155 3519
6 BEGU Aurore 9042 D45 0111AR 0:33:58 3262 3283 +21 3197
7 URVOAS Nadège 28383 D40 7807IF 0:34:35 3868 3224 -644 3867
8 BLOT Karine 28065 D40 8807GE 0:35:06 878 3177 +2299 2584
9 SENCE Marie-Pierre 29897 D40 5906HF 0:35:17 3051 3160 +109 3032
10 PECHSTEIN Alice 9619 D40 5402GE 0:35:21 3251 3154 -97 3173
11 ARNAULT Katy 24584 D40 8607NA 0:35:35 3552 3134 -418 3425
12 DEBARD Emmanuelle 33936 D40 4203AR 0:36:01 0 3096 2734
13 JEANPIERRE M-Therese 3302 D70 8809GE 0:36:25 3155 3062 -93 2784
14 BIDEGORRY Karine 34879 D40 7305AR 0:36:32 3052 2672
15 HENRY Stéphanie 31040 D40 6701GE 0:36:38 2660 3044 +384 2798
16 BERNIER Véronique 26501 D40 7703IF 0:37:07 0 3004 2906
17 FERRAND Christine 31258 D45 3408OC 0:38:24 2874 2904 +30 3003
18 DUBROCA Monique 633 D70 3308NA 0:38:32 4088 2894 -1194 4027
19 MOULIERE M-Bernadette 2888 D70 0207HF 0:38:54 2971 2867 -104 2882
20 MAIRE Sandrine 31012 D45 5703GE 0:38:55 2486 2865 +379 2616
21 BONNIN Céline 24452 D40 4203AR 0:38:57 2966 2863 -103 2979
22 PINEAU Noelle 4678 D45 5702GE 0:39:06 2775 2852 +77 2783
23 VOGT Christiane 2557 D70 6709GE 0:39:33 2972 2820 -152 2966
24 BARRE Christine 34339 D40 1705NA 0:40:14 1796 2772 +976 2268
25 ARONDEAU Fabienne 33443 D40 4203AR 0:42:33 2635 2621 -14 2984
26 POTVIN Anja 30234 D45 6804GE 0:43:04 2503 2589 +86 2454
27 ROBERT Stephanie 1088 D40 7004BF 0:44:17 2518 2417
28 GINER Céline 27112 D40 4203AR 0:45:15 3447 2464 -983 3137
29 PRUVOST Virginie 25881 D45 6208HF 0:46:20 3029 2407 -622 2988
30 ROLLET Marie-Madeleine 2413 D70 5413GE 0:47:38 1671 2341 +670 2085
31 FINO Béatrice 1674 D45 0111AR 0:58:41 2312 1900 -412 1779
32 LAPERGUE Florence 30817 D45 3319NA 0:59:38 2827 1870 -957 2940
33 GROSJEAN A-Marie 12059 D80 6913AR 0:59:48 2150 1865 -285 2159
34 LUDEWIG-JAMES Carol 15894 D75 5907HF 1:06:58 1900 1665 -235 1909
35 FEHLEN Jacqueline 20808 D70 5407GE 1:14:53 2101 1489 -612 1523
36 DIEUDONNE Madeleine 1380 D70 7808IF 1:17:40 3474 1436 -2038 3413
DENIS Martine 12377 D70 9404IF pm 2516 0 2451
DESMAU Laurence 32640 D45 6806GE pm 0 0 1061
QUEYROI Yvette 14021 D55 3308NA pm 1561 0 1672